sensor_id;sensor_type;location;lat;lon;timestamp;P1;durP1;ratioP1;P2;durP2;ratioP2
2724;SDS011;1370;52.596;13.112;2022-08-03T00:01:21;7.73;;;5.20;;
2724;SDS011;1370;52.596;13.112;2022-08-03T00:03:46;4.53;;;4.23;;
2724;SDS011;1370;52.596;13.112;2022-08-03T00:06:11;4.37;;;4.03;;
2724;SDS011;1370;52.596;13.112;2022-08-03T00:08:37;5.03;;;4.70;;
2724;SDS011;1370;52.596;13.112;2022-08-03T00:11:02;7.13;;;4.37;;
2724;SDS011;1370;52.596;13.112;2022-08-03T00:13:28;9.67;;;4.83;;
2724;SDS011;1370;52.596;13.112;2022-08-03T00:15:53;4.33;;;4.00;;
2724;SDS011;1370;52.596;13.112;2022-08-03T00:18:18;13.20;;;5.00;;
2724;SDS011;1370;52.596;13.112;2022-08-03T00:20:44;4.33;;;4.03;;
2724;SDS011;1370;52.596;13.112;2022-08-03T00:23:09;5.73;;;4.50;;
2724;SDS011;1370;52.596;13.112;2022-08-03T00:25:34;5.57;;;4.30;;
2724;SDS011;1370;52.596;13.112;2022-08-03T00:28:00;6.63;;;5.43;;
2724;SDS011;1370;52.596;13.112;2022-08-03T00:30:26;8.03;;;3.87;;
2724;SDS011;1370;52.596;13.112;2022-08-03T00:32:52;5.20;;;4.80;;
2724;SDS011;1370;52.596;13.112;2022-08-03T00:35:17;4.43;;;4.13;;
2724;SDS011;1370;52.596;13.112;2022-08-03T00:37:42;4.63;;;3.97;;
2724;SDS011;1370;52.596;13.112;2022-08-03T00:40:10;6.53;;;5.30;;
2724;SDS011;1370;52.596;13.112;2022-08-03T00:42:47;6.10;;;5.30;;
2724;SDS011;1370;52.596;13.112;2022-08-03T00:45:14;7.87;;;4.47;;
2724;SDS011;1370;52.596;13.112;2022-08-03T00:47:40;7.60;;;4.40;;
2724;SDS011;1370;52.596;13.112;2022-08-03T00:50:05;5.73;;;5.13;;
2724;SDS011;1370;52.596;13.112;2022-08-03T00:52:31;5.63;;;3.90;;
2724;SDS011;1370;52.596;13.112;2022-08-03T00:54:56;7.20;;;5.43;;
2724;SDS011;1370;52.596;13.112;2022-08-03T00:57:21;11.60;;;4.90;;
2724;SDS011;1370;52.596;13.112;2022-08-03T00:59:47;6.83;;;4.70;;
2724;SDS011;1370;52.596;13.112;2022-08-03T01:02:12;5.27;;;4.73;;
2724;SDS011;1370;52.596;13.112;2022-08-03T01:04:37;5.20;;;4.70;;
2724;SDS011;1370;52.596;13.112;2022-08-03T01:07:09;5.33;;;4.93;;
2724;SDS011;1370;52.596;13.112;2022-08-03T01:15:12;6.40;;;4.90;;
2724;SDS011;1370;52.596;13.112;2022-08-03T01:20:13;5.10;;;4.70;;
2724;SDS011;1370;52.596;13.112;2022-08-03T01:31:15;5.40;;;5.00;;
2724;SDS011;1370;52.596;13.112;2022-08-03T01:33:45;5.77;;;5.27;;
2724;SDS011;1370;52.596;13.112;2022-08-03T01:36:12;6.10;;;5.53;;
2724;SDS011;1370;52.596;13.112;2022-08-03T01:38:41;5.70;;;5.20;;
2724;SDS011;1370;52.596;13.112;2022-08-03T01:41:17;7.13;;;5.40;;
2724;SDS011;1370;52.596;13.112;2022-08-03T01:43:45;5.43;;;5.00;;
2724;SDS011;1370;52.596;13.112;2022-08-03T01:46:13;6.47;;;5.60;;
2724;SDS011;1370;52.596;13.112;2022-08-03T01:48:40;5.63;;;5.20;;
2724;SDS011;1370;52.596;13.112;2022-08-03T01:51:07;9.33;;;5.70;;
2724;SDS011;1370;52.596;13.112;2022-08-03T01:53:33;5.97;;;5.40;;
2724;SDS011;1370;52.596;13.112;2022-08-03T01:55:59;4.97;;;4.50;;
2724;SDS011;1370;52.596;13.112;2022-08-03T01:58:26;8.80;;;5.30;;
2724;SDS011;1370;52.596;13.112;2022-08-03T02:00:52;5.97;;;5.47;;
2724;SDS011;1370;52.596;13.112;2022-08-03T02:03:23;5.97;;;5.47;;
2724;SDS011;1370;52.596;13.112;2022-08-03T02:05:48;7.90;;;4.37;;
2724;SDS011;1370;52.596;13.112;2022-08-03T02:08:14;6.93;;;5.00;;
2724;SDS011;1370;52.596;13.112;2022-08-03T02:10:40;5.77;;;5.37;;
2724;SDS011;1370;52.596;13.112;2022-08-03T02:13:08;8.53;;;5.57;;
2724;SDS011;1370;52.596;13.112;2022-08-03T02:15:35;5.10;;;4.70;;
2724;SDS011;1370;52.596;13.112;2022-08-03T02:18:01;6.00;;;5.40;;
2724;SDS011;1370;52.596;13.112;2022-08-03T02:20:27;4.77;;;4.37;;
2724;SDS011;1370;52.596;13.112;2022-08-03T02:22:52;5.10;;;4.43;;
2724;SDS011;1370;52.596;13.112;2022-08-03T02:25:18;5.90;;;5.40;;
2724;SDS011;1370;52.596;13.112;2022-08-03T02:28:00;6.17;;;5.63;;
2724;SDS011;1370;52.596;13.112;2022-08-03T02:30:32;5.53;;;5.13;;
2724;SDS011;1370;52.596;13.112;2022-08-03T02:33:02;5.40;;;4.50;;
2724;SDS011;1370;52.596;13.112;2022-08-03T02:35:29;5.03;;;4.63;;
2724;SDS011;1370;52.596;13.112;2022-08-03T02:37:56;6.40;;;4.77;;
2724;SDS011;1370;52.596;13.112;2022-08-03T02:40:28;8.10;;;4.97;;
2724;SDS011;1370;52.596;13.112;2022-08-03T02:42:56;6.60;;;5.40;;
2724;SDS011;1370;52.596;13.112;2022-08-03T02:45:24;7.33;;;5.20;;
2724;SDS011;1370;52.596;13.112;2022-08-03T02:47:51;6.43;;;5.83;;
2724;SDS011;1370;52.596;13.112;2022-08-03T02:50:17;7.80;;;5.30;;
2724;SDS011;1370;52.596;13.112;2022-08-03T02:52:43;4.70;;;4.30;;
2724;SDS011;1370;52.596;13.112;2022-08-03T02:55:09;6.53;;;5.90;;
2724;SDS011;1370;52.596;13.112;2022-08-03T02:57:35;6.17;;;5.57;;
2724;SDS011;1370;52.596;13.112;2022-08-03T03:00:01;5.60;;;5.10;;
2724;SDS011;1370;52.596;13.112;2022-08-03T03:02:27;6.00;;;5.40;;
2724;SDS011;1370;52.596;13.112;2022-08-03T03:04:53;9.23;;;5.17;;
2724;SDS011;1370;52.596;13.112;2022-08-03T03:07:19;5.93;;;4.87;;
2724;SDS011;1370;52.596;13.112;2022-08-03T03:09:44;5.37;;;4.97;;
2724;SDS011;1370;52.596;13.112;2022-08-03T03:12:11;5.23;;;4.77;;
2724;SDS011;1370;52.596;13.112;2022-08-03T03:14:37;5.00;;;4.60;;
2724;SDS011;1370;52.596;13.112;2022-08-03T03:17:03;7.43;;;5.17;;
2724;SDS011;1370;52.596;13.112;2022-08-03T03:19:31;4.90;;;4.50;;
2724;SDS011;1370;52.596;13.112;2022-08-03T03:21:57;11.30;;;5.70;;
2724;SDS011;1370;52.596;13.112;2022-08-03T03:24:24;5.77;;;5.27;;
2724;SDS011;1370;52.596;13.112;2022-08-03T03:26:50;6.40;;;5.87;;
2724;SDS011;1370;52.596;13.112;2022-08-03T03:29:16;6.73;;;6.13;;
2724;SDS011;1370;52.596;13.112;2022-08-03T03:31:41;6.53;;;5.93;;
2724;SDS011;1370;52.596;13.112;2022-08-03T03:34:06;6.50;;;5.90;;
2724;SDS011;1370;52.596;13.112;2022-08-03T03:36:32;7.33;;;6.10;;
2724;SDS011;1370;52.596;13.112;2022-08-03T03:38:57;7.60;;;6.90;;
2724;SDS011;1370;52.596;13.112;2022-08-03T03:41:22;6.30;;;5.60;;
2724;SDS011;1370;52.596;13.112;2022-08-03T03:43:48;7.00;;;6.60;;
2724;SDS011;1370;52.596;13.112;2022-08-03T03:46:14;6.77;;;6.23;;
2724;SDS011;1370;52.596;13.112;2022-08-03T03:48:39;6.17;;;5.57;;
2724;SDS011;1370;52.596;13.112;2022-08-03T03:51:05;7.10;;;6.50;;
2724;SDS011;1370;52.596;13.112;2022-08-03T03:53:31;7.13;;;6.40;;
2724;SDS011;1370;52.596;13.112;2022-08-03T03:55:56;7.33;;;6.43;;
2724;SDS011;1370;52.596;13.112;2022-08-03T03:58:21;7.13;;;6.43;;
2724;SDS011;1370;52.596;13.112;2022-08-03T04:00:46;8.17;;;5.90;;
2724;SDS011;1370;52.596;13.112;2022-08-03T04:03:12;6.67;;;6.03;;
2724;SDS011;1370;52.596;13.112;2022-08-03T04:05:37;10.10;;;6.33;;
2724;SDS011;1370;52.596;13.112;2022-08-03T04:08:21;7.20;;;6.67;;
2724;SDS011;1370;52.596;13.112;2022-08-03T04:11:25;7.60;;;6.90;;
2724;SDS011;1370;52.596;13.112;2022-08-03T04:13:54;6.80;;;6.03;;
2724;SDS011;1370;52.596;13.112;2022-08-03T04:16:27;7.20;;;6.50;;
2724;SDS011;1370;52.596;13.112;2022-08-03T04:18:59;10.70;;;5.70;;
2724;SDS011;1370;52.596;13.112;2022-08-03T04:21:27;6.90;;;6.13;;
2724;SDS011;1370;52.596;13.112;2022-08-03T04:23:54;9.77;;;6.30;;
2724;SDS011;1370;52.596;13.112;2022-08-03T04:26:23;6.33;;;5.83;;
2724;SDS011;1370;52.596;13.112;2022-08-03T04:28:51;7.60;;;5.90;;
2724;SDS011;1370;52.596;13.112;2022-08-03T04:31:19;12.03;;;6.17;;
2724;SDS011;1370;52.596;13.112;2022-08-03T04:33:46;6.87;;;6.27;;
2724;SDS011;1370;52.596;13.112;2022-08-03T04:36:14;5.50;;;5.00;;
2724;SDS011;1370;52.596;13.112;2022-08-03T04:38:51;5.40;;;4.90;;
2724;SDS011;1370;52.596;13.112;2022-08-03T04:41:19;8.77;;;5.93;;
2724;SDS011;1370;52.596;13.112;2022-08-03T04:43:47;7.67;;;6.67;;
2724;SDS011;1370;52.596;13.112;2022-08-03T04:46:13;8.00;;;6.40;;
2724;SDS011;1370;52.596;13.112;2022-08-03T04:48:39;6.77;;;6.00;;
2724;SDS011;1370;52.596;13.112;2022-08-03T04:51:05;10.30;;;6.20;;
2724;SDS011;1370;52.596;13.112;2022-08-03T04:53:31;5.53;;;5.23;;
2724;SDS011;1370;52.596;13.112;2022-08-03T04:56:02;6.80;;;5.93;;
2724;SDS011;1370;52.596;13.112;2022-08-03T04:58:28;7.53;;;6.87;;
2724;SDS011;1370;52.596;13.112;2022-08-03T05:00:53;6.93;;;6.50;;
2724;SDS011;1370;52.596;13.112;2022-08-03T05:03:18;7.77;;;7.03;;
2724;SDS011;1370;52.596;13.112;2022-08-03T05:05:44;12.07;;;6.70;;
2724;SDS011;1370;52.596;13.112;2022-08-03T05:08:09;7.60;;;6.90;;
2724;SDS011;1370;52.596;13.112;2022-08-03T05:10:34;7.03;;;6.43;;
2724;SDS011;1370;52.596;13.112;2022-08-03T05:12:59;10.30;;;7.67;;
2724;SDS011;1370;52.596;13.112;2022-08-03T05:15:25;7.17;;;6.47;;
2724;SDS011;1370;52.596;13.112;2022-08-03T05:17:50;10.43;;;7.83;;
2724;SDS011;1370;52.596;13.112;2022-08-03T05:20:15;7.23;;;6.53;;
2724;SDS011;1370;52.596;13.112;2022-08-03T05:22:41;6.80;;;6.40;;
2724;SDS011;1370;52.596;13.112;2022-08-03T05:25:06;7.07;;;6.20;;
2724;SDS011;1370;52.596;13.112;2022-08-03T05:27:31;6.73;;;6.13;;
2724;SDS011;1370;52.596;13.112;2022-08-03T05:29:57;9.87;;;7.13;;
2724;SDS011;1370;52.596;13.112;2022-08-03T05:32:22;6.83;;;6.30;;
2724;SDS011;1370;52.596;13.112;2022-08-03T05:34:48;7.43;;;6.80;;
2724;SDS011;1370;52.596;13.112;2022-08-03T05:37:13;10.57;;;5.70;;
2724;SDS011;1370;52.596;13.112;2022-08-03T05:39:38;6.73;;;5.80;;
2724;SDS011;1370;52.596;13.112;2022-08-03T05:42:04;8.13;;;5.80;;
2724;SDS011;1370;52.596;13.112;2022-08-03T05:44:29;5.70;;;5.30;;
2724;SDS011;1370;52.596;13.112;2022-08-03T05:46:55;9.97;;;6.27;;
2724;SDS011;1370;52.596;13.112;2022-08-03T05:49:21;5.60;;;5.13;;
2724;SDS011;1370;52.596;13.112;2022-08-03T05:51:46;5.87;;;5.20;;
2724;SDS011;1370;52.596;13.112;2022-08-03T05:54:11;5.83;;;5.20;;
2724;SDS011;1370;52.596;13.112;2022-08-03T05:56:37;4.97;;;4.67;;
2724;SDS011;1370;52.596;13.112;2022-08-03T05:59:04;5.60;;;5.10;;
2724;SDS011;1370;52.596;13.112;2022-08-03T06:01:30;7.30;;;6.60;;
2724;SDS011;1370;52.596;13.112;2022-08-03T06:03:57;8.20;;;6.67;;
2724;SDS011;1370;52.596;13.112;2022-08-03T06:06:22;5.60;;;5.10;;
2724;SDS011;1370;52.596;13.112;2022-08-03T06:08:47;7.37;;;5.00;;
2724;SDS011;1370;52.596;13.112;2022-08-03T06:11:13;5.67;;;3.60;;
2724;SDS011;1370;52.596;13.112;2022-08-03T06:13:38;6.63;;;4.30;;
2724;SDS011;1370;52.596;13.112;2022-08-03T06:16:04;4.00;;;3.60;;
2724;SDS011;1370;52.596;13.112;2022-08-03T06:18:29;4.60;;;4.17;;
2724;SDS011;1370;52.596;13.112;2022-08-03T06:20:54;7.87;;;4.10;;
2724;SDS011;1370;52.596;13.112;2022-08-03T06:23:20;4.40;;;4.00;;
2724;SDS011;1370;52.596;13.112;2022-08-03T06:25:45;3.43;;;3.17;;
2724;SDS011;1370;52.596;13.112;2022-08-03T06:28:11;3.67;;;3.10;;
2724;SDS011;1370;52.596;13.112;2022-08-03T06:30:38;5.10;;;3.67;;
2724;SDS011;1370;52.596;13.112;2022-08-03T06:33:03;6.77;;;3.33;;
2724;SDS011;1370;52.596;13.112;2022-08-03T06:35:28;3.60;;;2.80;;
2724;SDS011;1370;52.596;13.112;2022-08-03T06:37:54;4.00;;;2.80;;
2724;SDS011;1370;52.596;13.112;2022-08-03T06:40:20;4.13;;;3.57;;
2724;SDS011;1370;52.596;13.112;2022-08-03T06:42:55;4.77;;;3.03;;
2724;SDS011;1370;52.596;13.112;2022-08-03T06:45:21;6.10;;;3.40;;
2724;SDS011;1370;52.596;13.112;2022-08-03T06:47:47;7.33;;;3.87;;
2724;SDS011;1370;52.596;13.112;2022-08-03T06:50:12;4.10;;;2.53;;
2724;SDS011;1370;52.596;13.112;2022-08-03T06:52:37;3.80;;;2.40;;
2724;SDS011;1370;52.596;13.112;2022-08-03T06:55:03;3.30;;;2.97;;
2724;SDS011;1370;52.596;13.112;2022-08-03T06:57:29;4.07;;;3.17;;
2724;SDS011;1370;52.596;13.112;2022-08-03T06:59:54;4.90;;;2.77;;
2724;SDS011;1370;52.596;13.112;2022-08-03T07:02:25;2.73;;;2.53;;
2724;SDS011;1370;52.596;13.112;2022-08-03T07:04:50;2.73;;;2.50;;
2724;SDS011;1370;52.596;13.112;2022-08-03T07:07:16;3.03;;;2.67;;
2724;SDS011;1370;52.596;13.112;2022-08-03T07:09:41;2.83;;;2.63;;
2724;SDS011;1370;52.596;13.112;2022-08-03T07:12:07;6.37;;;3.00;;
2724;SDS011;1370;52.596;13.112;2022-08-03T07:14:32;2.70;;;2.50;;
2724;SDS011;1370;52.596;13.112;2022-08-03T07:16:57;4.30;;;3.03;;
2724;SDS011;1370;52.596;13.112;2022-08-03T07:19:22;3.33;;;3.00;;
2724;SDS011;1370;52.596;13.112;2022-08-03T07:21:48;4.33;;;3.27;;
2724;SDS011;1370;52.596;13.112;2022-08-03T07:24:13;2.73;;;2.53;;
2724;SDS011;1370;52.596;13.112;2022-08-03T07:26:38;8.50;;;3.40;;
2724;SDS011;1370;52.596;13.112;2022-08-03T07:29:04;3.50;;;2.50;;
2724;SDS011;1370;52.596;13.112;2022-08-03T07:31:29;2.70;;;2.50;;
2724;SDS011;1370;52.596;13.112;2022-08-03T07:33:54;6.33;;;2.27;;
2724;SDS011;1370;52.596;13.112;2022-08-03T07:36:19;5.30;;;2.70;;
2724;SDS011;1370;52.596;13.112;2022-08-03T07:38:45;3.00;;;2.80;;
2724;SDS011;1370;52.596;13.112;2022-08-03T07:41:10;2.80;;;2.47;;
2724;SDS011;1370;52.596;13.112;2022-08-03T07:43:36;3.43;;;2.40;;
2724;SDS011;1370;52.596;13.112;2022-08-03T07:46:01;2.30;;;2.10;;
2724;SDS011;1370;52.596;13.112;2022-08-03T07:48:26;3.10;;;2.80;;
2724;SDS011;1370;52.596;13.112;2022-08-03T07:50:51;4.83;;;2.80;;
2724;SDS011;1370;52.596;13.112;2022-08-03T07:53:17;7.00;;;3.00;;
2724;SDS011;1370;52.596;13.112;2022-08-03T07:55:42;4.03;;;2.43;;
2724;SDS011;1370;52.596;13.112;2022-08-03T07:58:11;3.23;;;2.63;;
2724;SDS011;1370;52.596;13.112;2022-08-03T08:00:39;3.30;;;2.43;;
2724;SDS011;1370;52.596;13.112;2022-08-03T08:03:05;5.30;;;2.20;;
2724;SDS011;1370;52.596;13.112;2022-08-03T08:05:30;3.83;;;1.97;;
2724;SDS011;1370;52.596;13.112;2022-08-03T08:07:56;2.00;;;1.80;;
2724;SDS011;1370;52.596;13.112;2022-08-03T08:10:21;3.70;;;2.53;;
2724;SDS011;1370;52.596;13.112;2022-08-03T08:12:47;3.93;;;2.33;;
2724;SDS011;1370;52.596;13.112;2022-08-03T08:15:12;3.27;;;2.70;;
2724;SDS011;1370;52.596;13.112;2022-08-03T08:17:45;2.50;;;2.30;;
2724;SDS011;1370;52.596;13.112;2022-08-03T08:20:13;4.43;;;2.70;;
2724;SDS011;1370;52.596;13.112;2022-08-03T08:22:40;4.63;;;2.10;;
2724;SDS011;1370;52.596;13.112;2022-08-03T08:25:06;2.60;;;2.20;;
2724;SDS011;1370;52.596;13.112;2022-08-03T08:27:31;2.67;;;2.47;;
2724;SDS011;1370;52.596;13.112;2022-08-03T08:29:57;2.67;;;2.40;;
2724;SDS011;1370;52.596;13.112;2022-08-03T08:32:22;5.07;;;2.90;;
2724;SDS011;1370;52.596;13.112;2022-08-03T08:34:47;5.53;;;2.03;;
2724;SDS011;1370;52.596;13.112;2022-08-03T08:37:13;2.53;;;2.33;;
2724;SDS011;1370;52.596;13.112;2022-08-03T08:39:38;4.83;;;2.27;;
2724;SDS011;1370;52.596;13.112;2022-08-03T08:42:03;2.67;;;2.47;;
2724;SDS011;1370;52.596;13.112;2022-08-03T08:44:28;3.37;;;2.20;;
2724;SDS011;1370;52.596;13.112;2022-08-03T08:46:54;3.70;;;3.17;;
2724;SDS011;1370;52.596;13.112;2022-08-03T08:49:22;3.37;;;2.73;;
2724;SDS011;1370;52.596;13.112;2022-08-03T08:51:48;3.37;;;2.67;;
2724;SDS011;1370;52.596;13.112;2022-08-03T08:54:16;5.40;;;2.20;;
2724;SDS011;1370;52.596;13.112;2022-08-03T08:56:42;3.00;;;2.23;;
2724;SDS011;1370;52.596;13.112;2022-08-03T08:59:08;6.93;;;2.23;;
2724;SDS011;1370;52.596;13.112;2022-08-03T09:01:34;4.37;;;2.70;;
2724;SDS011;1370;52.596;13.112;2022-08-03T09:03:59;3.10;;;2.50;;
2724;SDS011;1370;52.596;13.112;2022-08-03T09:06:24;2.90;;;2.60;;
2724;SDS011;1370;52.596;13.112;2022-08-03T09:08:50;3.00;;;2.70;;
2724;SDS011;1370;52.596;13.112;2022-08-03T09:11:16;6.10;;;3.03;;
2724;SDS011;1370;52.596;13.112;2022-08-03T09:13:45;4.23;;;2.53;;
2724;SDS011;1370;52.596;13.112;2022-08-03T09:16:14;4.87;;;2.53;;
2724;SDS011;1370;52.596;13.112;2022-08-03T09:18:45;2.50;;;2.17;;
2724;SDS011;1370;52.596;13.112;2022-08-03T09:23:51;2.60;;;2.40;;
2724;SDS011;1370;52.596;13.112;2022-08-03T09:26:24;6.73;;;3.10;;
2724;SDS011;1370;52.596;13.112;2022-08-03T09:29:07;2.70;;;2.50;;
2724;SDS011;1370;52.596;13.112;2022-08-03T09:34:03;2.90;;;2.70;;
2724;SDS011;1370;52.596;13.112;2022-08-03T09:36:49;3.27;;;2.03;;
2724;SDS011;1370;52.596;13.112;2022-08-03T09:39:15;2.47;;;2.27;;
2724;SDS011;1370;52.596;13.112;2022-08-03T09:41:43;4.00;;;2.33;;
2724;SDS011;1370;52.596;13.112;2022-08-03T09:44:09;3.30;;;2.33;;
2724;SDS011;1370;52.596;13.112;2022-08-03T09:46:48;2.90;;;2.70;;
2724;SDS011;1370;52.596;13.112;2022-08-03T09:49:13;2.80;;;2.50;;
2724;SDS011;1370;52.596;13.112;2022-08-03T09:51:39;2.50;;;2.30;;
2724;SDS011;1370;52.596;13.112;2022-08-03T09:54:04;2.73;;;2.53;;
2724;SDS011;1370;52.596;13.112;2022-08-03T09:56:36;2.83;;;2.63;;
2724;SDS011;1370;52.596;13.112;2022-08-03T09:59:05;2.47;;;2.27;;
2724;SDS011;1370;52.596;13.112;2022-08-03T10:01:34;3.00;;;2.03;;
2724;SDS011;1370;52.596;13.112;2022-08-03T10:04:00;2.27;;;2.07;;
2724;SDS011;1370;52.596;13.112;2022-08-03T10:06:25;2.63;;;2.43;;
2724;SDS011;1370;52.596;13.112;2022-08-03T10:11:48;3.30;;;3.00;;
2724;SDS011;1370;52.596;13.112;2022-08-03T10:14:14;4.80;;;2.80;;
2724;SDS011;1370;52.596;13.112;2022-08-03T10:16:43;4.13;;;2.23;;
2724;SDS011;1370;52.596;13.112;2022-08-03T10:19:09;2.93;;;2.43;;
2724;SDS011;1370;52.596;13.112;2022-08-03T10:21:35;5.00;;;2.63;;
2724;SDS011;1370;52.596;13.112;2022-08-03T10:24:03;2.87;;;2.40;;
2724;SDS011;1370;52.596;13.112;2022-08-03T10:26:34;4.70;;;2.70;;
2724;SDS011;1370;52.596;13.112;2022-08-03T10:29:02;2.93;;;2.37;;
2724;SDS011;1370;52.596;13.112;2022-08-03T10:31:36;2.40;;;2.20;;
2724;SDS011;1370;52.596;13.112;2022-08-03T10:34:04;3.40;;;2.30;;
2724;SDS011;1370;52.596;13.112;2022-08-03T10:36:32;3.37;;;2.27;;
2724;SDS011;1370;52.596;13.112;2022-08-03T10:39:00;5.23;;;3.23;;
2724;SDS011;1370;52.596;13.112;2022-08-03T10:41:29;3.60;;;2.60;;
2724;SDS011;1370;52.596;13.112;2022-08-03T10:43:58;2.67;;;2.47;;
2724;SDS011;1370;52.596;13.112;2022-08-03T10:46:27;3.83;;;3.37;;
2724;SDS011;1370;52.596;13.112;2022-08-03T10:48:53;3.10;;;2.40;;
2724;SDS011;1370;52.596;13.112;2022-08-03T10:51:20;5.10;;;2.63;;
2724;SDS011;1370;52.596;13.112;2022-08-03T10:53:46;3.80;;;2.30;;
2724;SDS011;1370;52.596;13.112;2022-08-03T10:56:36;3.97;;;2.50;;
2724;SDS011;1370;52.596;13.112;2022-08-03T10:59:19;2.80;;;2.60;;
2724;SDS011;1370;52.596;13.112;2022-08-03T11:02:09;5.83;;;2.70;;
2724;SDS011;1370;52.596;13.112;2022-08-03T11:04:36;3.70;;;2.53;;
2724;SDS011;1370;52.596;13.112;2022-08-03T11:07:20;3.63;;;2.20;;
2724;SDS011;1370;52.596;13.112;2022-08-03T11:09:48;5.30;;;3.20;;
2724;SDS011;1370;52.596;13.112;2022-08-03T11:14:53;2.27;;;2.07;;
2724;SDS011;1370;52.596;13.112;2022-08-03T11:17:19;3.23;;;2.30;;
2724;SDS011;1370;52.596;13.112;2022-08-03T11:19:48;3.03;;;2.77;;
2724;SDS011;1370;52.596;13.112;2022-08-03T11:22:15;2.83;;;2.30;;
2724;SDS011;1370;52.596;13.112;2022-08-03T11:27:15;3.30;;;2.57;;
2724;SDS011;1370;52.596;13.112;2022-08-03T11:30:09;5.10;;;3.17;;
2724;SDS011;1370;52.596;13.112;2022-08-03T11:32:50;2.90;;;2.70;;
2724;SDS011;1370;52.596;13.112;2022-08-03T11:35:18;2.33;;;1.93;;
2724;SDS011;1370;52.596;13.112;2022-08-03T11:38:10;5.80;;;2.33;;
2724;SDS011;1370;52.596;13.112;2022-08-03T11:40:40;4.30;;;2.67;;
2724;SDS011;1370;52.596;13.112;2022-08-03T11:43:10;4.03;;;2.83;;
2724;SDS011;1370;52.596;13.112;2022-08-03T11:46:03;9.00;;;3.00;;
2724;SDS011;1370;52.596;13.112;2022-08-03T11:48:37;4.53;;;2.80;;
2724;SDS011;1370;52.596;13.112;2022-08-03T11:51:25;2.80;;;2.60;;
2724;SDS011;1370;52.596;13.112;2022-08-03T11:54:00;2.37;;;2.17;;
2724;SDS011;1370;52.596;13.112;2022-08-03T11:56:26;3.40;;;3.10;;
2724;SDS011;1370;52.596;13.112;2022-08-03T11:58:53;2.83;;;2.53;;
2724;SDS011;1370;52.596;13.112;2022-08-03T12:01:22;4.00;;;2.90;;
2724;SDS011;1370;52.596;13.112;2022-08-03T12:03:48;2.37;;;2.17;;
2724;SDS011;1370;52.596;13.112;2022-08-03T12:06:14;3.50;;;2.70;;
2724;SDS011;1370;52.596;13.112;2022-08-03T12:08:40;2.73;;;2.53;;
2724;SDS011;1370;52.596;13.112;2022-08-03T12:11:07;5.80;;;2.80;;
2724;SDS011;1370;52.596;13.112;2022-08-03T12:13:37;3.40;;;2.50;;
2724;SDS011;1370;52.596;13.112;2022-08-03T12:16:05;2.90;;;2.70;;
2724;SDS011;1370;52.596;13.112;2022-08-03T12:18:30;3.10;;;2.87;;
2724;SDS011;1370;52.596;13.112;2022-08-03T12:21:30;5.13;;;2.77;;
2724;SDS011;1370;52.596;13.112;2022-08-03T12:23:48;7.80;;;2.53;;
2724;SDS011;1370;52.596;13.112;2022-08-03T12:26:14;3.20;;;3.00;;
2724;SDS011;1370;52.596;13.112;2022-08-03T12:28:39;2.93;;;2.73;;
2724;SDS011;1370;52.596;13.112;2022-08-03T12:31:11;6.20;;;2.97;;
2724;SDS011;1370;52.596;13.112;2022-08-03T12:33:57;4.70;;;2.77;;
2724;SDS011;1370;52.596;13.112;2022-08-03T12:36:24;4.07;;;3.03;;
2724;SDS011;1370;52.596;13.112;2022-08-03T12:38:53;4.20;;;2.20;;
2724;SDS011;1370;52.596;13.112;2022-08-03T12:41:38;3.37;;;2.70;;
2724;SDS011;1370;52.596;13.112;2022-08-03T12:44:05;5.17;;;3.13;;
2724;SDS011;1370;52.596;13.112;2022-08-03T12:46:38;3.77;;;2.80;;
2724;SDS011;1370;52.596;13.112;2022-08-03T12:49:08;3.10;;;2.90;;
2724;SDS011;1370;52.596;13.112;2022-08-03T12:54:07;5.03;;;2.97;;
2724;SDS011;1370;52.596;13.112;2022-08-03T12:56:33;3.50;;;3.20;;
2724;SDS011;1370;52.596;13.112;2022-08-03T12:58:59;3.03;;;2.73;;
2724;SDS011;1370;52.596;13.112;2022-08-03T13:01:24;3.17;;;2.97;;
2724;SDS011;1370;52.596;13.112;2022-08-03T13:03:52;4.37;;;2.53;;
2724;SDS011;1370;52.596;13.112;2022-08-03T13:06:24;2.73;;;2.33;;
2724;SDS011;1370;52.596;13.112;2022-08-03T13:09:00;4.77;;;2.93;;
2724;SDS011;1370;52.596;13.112;2022-08-03T13:11:30;2.97;;;2.77;;
2724;SDS011;1370;52.596;13.112;2022-08-03T13:13:55;2.77;;;2.57;;
2724;SDS011;1370;52.596;13.112;2022-08-03T13:16:21;3.50;;;3.30;;
2724;SDS011;1370;52.596;13.112;2022-08-03T13:18:47;4.23;;;3.37;;
2724;SDS011;1370;52.596;13.112;2022-08-03T13:21:13;4.70;;;3.23;;
2724;SDS011;1370;52.596;13.112;2022-08-03T13:23:42;3.70;;;3.00;;
2724;SDS011;1370;52.596;13.112;2022-08-03T13:26:07;4.60;;;3.17;;
2724;SDS011;1370;52.596;13.112;2022-08-03T13:28:33;4.27;;;3.30;;
2724;SDS011;1370;52.596;13.112;2022-08-03T13:30:59;3.57;;;3.37;;
2724;SDS011;1370;52.596;13.112;2022-08-03T13:33:25;6.43;;;2.80;;
2724;SDS011;1370;52.596;13.112;2022-08-03T13:35:51;4.10;;;2.93;;
2724;SDS011;1370;52.596;13.112;2022-08-03T13:38:17;3.30;;;3.00;;
2724;SDS011;1370;52.596;13.112;2022-08-03T13:40:42;3.87;;;3.50;;
2724;SDS011;1370;52.596;13.112;2022-08-03T13:43:07;3.13;;;2.93;;
2724;SDS011;1370;52.596;13.112;2022-08-03T13:45:33;3.13;;;2.93;;
2724;SDS011;1370;52.596;13.112;2022-08-03T13:47:59;3.37;;;3.07;;
2724;SDS011;1370;52.596;13.112;2022-08-03T13:50:25;6.07;;;3.27;;
2724;SDS011;1370;52.596;13.112;2022-08-03T13:52:50;3.97;;;3.57;;
2724;SDS011;1370;52.596;13.112;2022-08-03T13:55:16;3.20;;;3.00;;
2724;SDS011;1370;52.596;13.112;2022-08-03T13:57:41;8.77;;;3.30;;
2724;SDS011;1370;52.596;13.112;2022-08-03T14:00:06;3.63;;;3.33;;
2724;SDS011;1370;52.596;13.112;2022-08-03T14:02:32;4.50;;;3.10;;
2724;SDS011;1370;52.596;13.112;2022-08-03T14:04:58;3.77;;;3.47;;
2724;SDS011;1370;52.596;13.112;2022-08-03T14:07:23;3.80;;;3.50;;
2724;SDS011;1370;52.596;13.112;2022-08-03T14:09:48;3.00;;;2.80;;
2724;SDS011;1370;52.596;13.112;2022-08-03T14:12:14;4.10;;;3.70;;
2724;SDS011;1370;52.596;13.112;2022-08-03T14:14:39;4.40;;;2.97;;
2724;SDS011;1370;52.596;13.112;2022-08-03T14:17:04;3.80;;;3.17;;
2724;SDS011;1370;52.596;13.112;2022-08-03T14:19:29;3.13;;;2.93;;
2724;SDS011;1370;52.596;13.112;2022-08-03T14:21:55;5.83;;;3.03;;
2724;SDS011;1370;52.596;13.112;2022-08-03T14:24:20;3.83;;;3.53;;
2724;SDS011;1370;52.596;13.112;2022-08-03T14:26:45;4.30;;;3.37;;
2724;SDS011;1370;52.596;13.112;2022-08-03T14:29:11;3.10;;;2.90;;
2724;SDS011;1370;52.596;13.112;2022-08-03T14:31:36;3.60;;;3.30;;
2724;SDS011;1370;52.596;13.112;2022-08-03T14:34:02;5.03;;;3.27;;
2724;SDS011;1370;52.596;13.112;2022-08-03T14:36:27;3.37;;;3.07;;
2724;SDS011;1370;52.596;13.112;2022-08-03T14:38:53;8.80;;;3.20;;
2724;SDS011;1370;52.596;13.112;2022-08-03T14:41:18;4.10;;;3.50;;
2724;SDS011;1370;52.596;13.112;2022-08-03T14:43:43;5.80;;;3.90;;
2724;SDS011;1370;52.596;13.112;2022-08-03T14:46:08;3.33;;;3.03;;
2724;SDS011;1370;52.596;13.112;2022-08-03T14:48:34;2.53;;;2.33;;
2724;SDS011;1370;52.596;13.112;2022-08-03T14:50:59;3.27;;;3.07;;
2724;SDS011;1370;52.596;13.112;2022-08-03T14:53:24;5.60;;;3.50;;
2724;SDS011;1370;52.596;13.112;2022-08-03T14:55:50;3.40;;;3.10;;
2724;SDS011;1370;52.596;13.112;2022-08-03T14:58:20;3.50;;;3.20;;
2724;SDS011;1370;52.596;13.112;2022-08-03T15:00:46;3.70;;;2.90;;
2724;SDS011;1370;52.596;13.112;2022-08-03T15:03:14;3.70;;;3.40;;
2724;SDS011;1370;52.596;13.112;2022-08-03T15:05:40;3.60;;;3.30;;
2724;SDS011;1370;52.596;13.112;2022-08-03T15:08:05;2.93;;;2.73;;
2724;SDS011;1370;52.596;13.112;2022-08-03T15:10:30;4.63;;;3.20;;
2724;SDS011;1370;52.596;13.112;2022-08-03T15:12:56;3.60;;;3.23;;
2724;SDS011;1370;52.596;13.112;2022-08-03T15:15:21;3.33;;;3.13;;
2724;SDS011;1370;52.596;13.112;2022-08-03T15:17:46;3.20;;;3.00;;
2724;SDS011;1370;52.596;13.112;2022-08-03T15:20:11;3.23;;;2.90;;
2724;SDS011;1370;52.596;13.112;2022-08-03T15:22:40;3.00;;;2.80;;
2724;SDS011;1370;52.596;13.112;2022-08-03T15:25:06;3.50;;;3.30;;
2724;SDS011;1370;52.596;13.112;2022-08-03T15:27:31;3.80;;;3.50;;
2724;SDS011;1370;52.596;13.112;2022-08-03T15:29:57;3.67;;;2.87;;
2724;SDS011;1370;52.596;13.112;2022-08-03T15:32:22;2.70;;;2.50;;
2724;SDS011;1370;52.596;13.112;2022-08-03T15:34:47;2.80;;;2.60;;